Aviation Digital Data Service (ADDS)

Output produced by METARs form (2057 UTC 20 October 2018)
found at http://www.aviationweather.gov/metar/data/
 
KJFK 202051Z 25013KT 10SM FEW040 SCT070 BKN150 BKN250 16/08 A2963 RMK AO2 SLP032 T01610083 56021 VISNO W $
KJFK 201916Z 2019/2124 27015KT P6SM SCT025 BKN035 BKN060 
     FM202200 27013KT P6SM SCT035 BKN060 BKN150 
     FM210100 28012KT P6SM BKN060 
     FM210600 28010KT P6SM VCSH SCT025 BKN060 
     FM210900 30013G25KT P6SM SCT025 BKN060 BKN150 
     FM211400 33023G32KT P6SM FEW060 SCT150 
     FM211800 33023G33KT P6SM BKN050
       
EGLL 202050Z AUTO 28005KT 9999 NCD 14/11 Q1031 NOSIG
TAF EGLL 201653Z 2018/2124 24005KT CAVOK 
     BECMG 2021/2024 6000 
     BECMG 2100/2103 3000 BR 
     TEMPO 2103/2109 1200 BCFG BKN002 
     PROB40 2103/2108 0400 FG VV/// 
     BECMG 2109/2112 9999 NSW 
     BECMG 2118/2121 36010KT BKN020 
     TEMPO 2120/2124 6000 -RA BKN012 
     PROB30 
     TEMPO 2121/2124 3000 RADZ BKN008
       
KBNA 202053Z 31008KT 10SM FEW030 SCT250 20/05 A3003 RMK AO2 SLP164 T02000050 55015
KBNA 201732Z 2018/2118 29009KT P6SM SCT015 
     FM202000 31012G20KT P6SM SKC 
     FM210200 35013G22KT P6SM SKC 
     FM210500 35009KT P6SM SKC 
     FM211400 04010KT P6SM SKC